Time;durP1;ratioP1;P1;durP2;ratioP2;P2;SDS_P1;SDS_P2;PMS_P1;PMS_P2;Temp;Humidity;BMP_temperature;BMP_pressure;BME280_temperature;BME280_humidity;BME280_pressure;Samples;Min_cycle;Max_cycle;Signal;HPM_P1;HPM_P2
2022/01/20 00:00:51;;;;;;;14.45;3.17;;;4.70;99.90;;;;;;5051004;28;20033;-63
2022/01/20 00:03:21;;;;;;;25.40;3.80;;;4.80;99.90;;;;;;5050347;28;20044;-63
2022/01/20 00:27:25;;;;;;;9.30;2.15;;;4.80;99.90;;;;;;5050459;28;20051;-63
2022/01/20 00:32:49;;;;;;;16.00;2.38;;;4.80;99.90;;;;;;5049954;28;20079;-63
2022/01/20 00:37:14;;;;;;;11.98;2.08;;;4.80;99.90;;;;;;5032590;28;20526;-63
2022/01/20 00:38:17;;;;;;;19.10;3.28;;;4.80;99.90;;;;;;5049901;28;20103;-62
2022/01/20 00:40:43;;;;;;;14.20;2.17;;;5.00;99.90;;;;;;5049960;28;20041;-62
2022/01/20 00:43:08;;;;;;;15.55;2.85;;;4.90;99.90;;;;;;5049784;28;20044;-63
2022/01/20 00:45:34;;;;;;;17.10;3.22;;;4.90;99.90;;;;;;5032093;28;20099;-62
2022/01/20 00:47:59;;;;;;;8.57;1.65;;;5.00;99.90;;;;;;5050322;28;20037;-62
2022/01/20 00:50:26;;;;;;;13.02;2.63;;;5.00;99.90;;;;;;5050088;28;20098;-62
2022/01/20 00:52:51;;;;;;;16.20;3.10;;;4.90;99.90;;;;;;5049755;28;20116;-62
2022/01/20 00:55:17;;;;;;;12.85;2.67;;;4.90;99.90;;;;;;5049929;28;20131;-62
2022/01/20 00:57:43;;;;;;;13.85;2.03;;;4.80;99.90;;;;;;5050020;28;20124;-63
2022/01/20 01:00:11;;;;;;;15.38;2.47;;;4.70;99.90;;;;;;5049692;28;20121;-62
2022/01/20 01:02:36;;;;;;;14.68;2.47;;;4.70;99.90;;;;;;5049556;28;20041;-62
2022/01/20 01:05:03;;;;;;;16.13;1.90;;;4.60;99.90;;;;;;5049988;28;20064;-62
2022/01/20 01:07:45;;;;;;;10.35;2.22;;;4.50;99.90;;;;;;5049731;28;20041;-62
2022/01/20 01:10:13;;;;;;;11.95;2.08;;;4.50;99.90;;;;;;5032170;28;20041;-62
2022/01/20 01:15:43;;;;;;;9.18;1.90;;;4.40;99.90;;;;;;4988307;28;20052;-62
2022/01/20 01:23:36;;;;;;;12.10;2.05;;;4.50;99.90;;;;;;5049454;28;20045;-62
2022/01/20 01:26:04;;;;;;;11.18;2.13;;;4.50;99.90;;;;;;5049743;28;20041;-63
2022/01/20 01:28:31;;;;;;;15.30;3.58;;;4.60;99.90;;;;;;5049779;28;20122;-62
2022/01/20 01:31:20;;;;;;;9.73;1.60;;;4.50;99.90;;;;;;5053199;28;20052;-62
2022/01/20 01:33:52;;;;;;;19.83;2.80;;;4.50;99.90;;;;;;5053114;28;20064;-62
2022/01/20 01:36:21;;;;;;;16.90;2.30;;;4.50;99.90;;;;;;5035609;28;20138;-62
2022/01/20 01:38:47;;;;;;;15.75;2.30;;;4.60;99.90;;;;;;5053543;28;20033;-62
2022/01/20 01:41:16;;;;;;;16.90;2.30;;;4.60;99.90;;;;;;5035961;28;20041;-62
2022/01/20 01:43:46;;;;;;;11.38;2.33;;;4.70;99.90;;;;;;5053182;28;20037;-62
2022/01/20 01:46:14;;;;;;;12.25;2.00;;;4.70;99.90;;;;;;5052709;28;20132;-62
2022/01/20 01:48:41;;;;;;;15.73;2.35;;;4.70;99.90;;;;;;5052640;28;20052;-62
2022/01/20 01:51:07;;;;;;;9.85;2.13;;;4.70;99.90;;;;;;5052645;28;20038;-62
2022/01/20 01:53:34;;;;;;;11.82;2.35;;;4.70;99.90;;;;;;5052246;28;20409;-62
2022/01/20 01:56:01;;;;;;;11.48;2.30;;;4.70;99.90;;;;;;5052350;28;20103;-62
2022/01/20 01:58:26;;;;;;;9.07;1.85;;;4.70;99.90;;;;;;5052092;28;20072;-62
2022/01/20 02:00:52;;;;;;;7.40;1.70;;;4.60;99.90;;;;;;5034569;28;20088;-62
2022/01/20 02:03:17;;;;;;;17.05;2.75;;;4.70;99.90;;;;;;5052094;28;20083;-62
2022/01/20 02:06:02;;;;;;;10.93;2.55;;;4.70;99.90;;;;;;5052243;28;20417;-63
2022/01/20 02:08:35;;;;;;;14.63;2.60;;;4.80;99.90;;;;;;5052262;28;20039;-63
2022/01/20 02:19:23;;;;;;;6.30;1.50;;;4.80;99.90;;;;;;5051812;28;20048;-62
2022/01/20 02:21:52;;;;;;;6.65;1.23;;;4.80;99.90;;;;;;5051700;28;20036;-63
2022/01/20 02:24:19;;;;;;;6.93;1.30;;;4.80;99.90;;;;;;5051897;28;20041;-63
2022/01/20 02:26:45;;;;;;;10.27;1.63;;;4.70;99.90;;;;;;5051793;28;20029;-63
2022/01/20 02:29:12;;;;;;;5.38;1.52;;;4.70;99.90;;;;;;5033859;28;20045;-62
2022/01/20 02:31:37;;;;;;;5.97;1.13;;;4.60;99.90;;;;;;5051737;28;20076;-63
2022/01/20 02:34:03;;;;;;;7.60;1.40;;;4.50;99.90;;;;;;5051350;28;20076;-63
2022/01/20 02:36:30;;;;;;;8.98;1.13;;;4.50;99.90;;;;;;5033847;28;20138;-62
2022/01/20 02:39:02;;;;;;;6.03;1.50;;;4.60;99.90;;;;;;5051492;28;20447;-63
2022/01/20 02:46:56;;;;;;;6.78;1.38;;;4.50;99.90;;;;;;5051593;28;20055;-63
2022/01/20 02:49:21;;;;;;;8.75;1.50;;;4.50;99.90;;;;;;5051458;28;20120;-63
2022/01/20 02:51:56;;;;;;;7.65;1.90;;;4.60;99.90;;;;;;5051341;28;20099;-63
2022/01/20 02:54:22;;;;;;;6.68;1.58;;;4.60;99.90;;;;;;5051336;28;20037;-64
2022/01/20 02:56:49;;;;;;;4.18;1.20;;;4.60;99.90;;;;;;5051070;28;20383;-65
2022/01/20 02:59:14;;;;;;;3.97;1.00;;;4.60;99.90;;;;;;5051318;28;20048;-64
2022/01/20 03:01:40;;;;;;;3.90;1.00;;;4.60;99.90;;;;;;5051299;28;20386;-63
2022/01/20 03:04:06;;;;;;;5.60;1.25;;;4.60;99.90;;;;;;5032802;28;20079;-65
2022/01/20 03:06:32;;;;;;;7.13;1.38;;;4.50;99.90;;;;;;5033446;28;20072;-64
2022/01/20 03:08:57;;;;;;;4.85;1.23;;;4.50;99.90;;;;;;5050972;28;20045;-63
2022/01/20 03:11:23;;;;;;;10.57;1.40;;;4.40;99.90;;;;;;5033132;28;20044;-63
2022/01/20 03:13:48;;;;;;;4.72;1.88;;;4.40;99.90;;;;;;5050831;28;20510;-64
2022/01/20 03:16:14;;;;;;;3.92;1.13;;;4.30;99.90;;;;;;5051277;28;20037;-64
2022/01/20 03:18:40;;;;;;;3.53;1.30;;;4.20;99.90;;;;;;5050698;28;20041;-63
2022/01/20 03:21:05;;;;;;;6.10;1.30;;;4.20;99.90;;;;;;5050833;28;20040;-64
2022/01/20 03:23:31;;;;;;;6.13;1.25;;;4.20;99.90;;;;;;5050494;28;20041;-63
2022/01/20 03:25:56;;;;;;;6.45;1.67;;;4.10;99.90;;;;;;5050647;28;20116;-64
2022/01/20 03:28:22;;;;;;;4.93;1.20;;;4.10;99.90;;;;;;5050617;28;20130;-64
2022/01/20 03:30:47;;;;;;;4.93;1.42;;;4.10;99.90;;;;;;5050550;28;20037;-63
2022/01/20 03:33:13;;;;;;;8.30;2.00;;;4.10;99.90;;;;;;5050345;28;20036;-63
2022/01/20 03:35:41;;;;;;;13.68;2.35;;;4.10;99.90;;;;;;5032811;28;20045;-63
2022/01/20 03:38:07;;;;;;;12.43;1.52;;;4.00;99.90;;;;;;5050548;28;20051;-63
2022/01/20 03:40:32;;;;;;;11.57;1.92;;;4.10;99.90;;;;;;5046332;28;20029;-63
2022/01/20 03:42:58;;;;;;;12.10;1.70;;;4.10;99.90;;;;;;5031054;28;20044;-63
2022/01/20 03:45:26;;;;;;;19.33;2.78;;;4.10;99.90;;;;;;5033794;28;20041;-63
2022/01/20 03:47:55;;;;;;;15.05;2.35;;;4.10;99.90;;;;;;5051374;28;20116;-63
2022/01/20 03:53:06;;;;;;;5.47;1.38;;;4.10;99.90;;;;;;5030527;28;20056;-64
2022/01/20 03:55:31;;;;;;;6.28;1.77;;;4.10;99.90;;;;;;5034993;28;20036;-64
2022/01/20 03:57:57;;;;;;;10.65;1.80;;;4.00;99.90;;;;;;5051095;28;20044;-64
2022/01/20 04:00:22;;;;;;;14.48;2.67;;;4.00;99.90;;;;;;5048283;28;20112;-64
2022/01/20 04:02:48;;;;;;;14.43;2.78;;;3.90;99.90;;;;;;5032880;28;20117;-63
2022/01/20 04:05:13;;;;;;;12.52;2.45;;;4.00;99.90;;;;;;5030783;28;20120;-64
2022/01/20 04:07:39;;;;;;;13.80;2.30;;;3.90;99.90;;;;;;5047871;28;20520;-63
2022/01/20 04:10:05;;;;;;;14.95;2.53;;;3.90;99.90;;;;;;5050898;28;20482;-64
2022/01/20 04:12:30;;;;;;;5.07;1.58;;;3.90;99.90;;;;;;5050413;28;20033;-64
2022/01/20 04:14:56;;;;;;;10.65;2.30;;;3.90;99.90;;;;;;5050619;28;20111;-64
2022/01/20 04:17:26;;;;;;;22.48;2.92;;;4.00;99.90;;;;;;5032307;28;20044;-65
2022/01/20 04:19:52;;;;;;;45.80;4.30;;;4.00;99.90;;;;;;5030919;28;20056;-64
2022/01/20 04:22:17;;;;;;;19.02;2.80;;;4.00;99.90;;;;;;5024871;28;20041;-63
2022/01/20 04:24:43;;;;;;;18.90;2.70;;;4.00;99.90;;;;;;5032644;28;20037;-64
2022/01/20 04:27:08;;;;;;;15.75;2.63;;;4.00;99.90;;;;;;5013455;28;20482;-64
2022/01/20 04:29:34;;;;;;;10.23;2.22;;;4.00;99.90;;;;;;5011470;28;20049;-65
2022/01/20 04:32:00;;;;;;;17.92;3.28;;;4.00;99.90;;;;;;5012067;28;20049;-64
2022/01/20 04:34:25;;;;;;;18.40;3.45;;;4.00;99.90;;;;;;5030159;28;20519;-64
2022/01/20 04:36:53;;;;;;;14.60;2.40;;;4.00;99.90;;;;;;5030037;28;20118;-64
2022/01/20 04:39:23;;;;;;;17.15;2.90;;;4.00;99.90;;;;;;5030302;28;20376;-63
2022/01/20 04:41:50;;;;;;;16.73;2.28;;;4.00;99.90;;;;;;5030201;28;20029;-64
2022/01/20 04:44:42;;;;;;;14.30;2.33;;;4.00;99.90;;;;;;5029995;28;20045;-63
2022/01/20 04:58:02;;;;;;;15.15;2.65;;;4.00;99.90;;;;;;5030022;28;20119;-63
2022/01/20 05:00:28;;;;;;;9.02;2.20;;;4.00;99.90;;;;;;5030109;28;20045;-64
2022/01/20 05:02:54;;;;;;;15.88;2.70;;;3.90;99.90;;;;;;5036789;22;20083;-63
2022/01/20 05:05:20;;;;;;;12.07;2.60;;;3.90;99.90;;;;;;5029753;28;20124;-63
2022/01/20 05:07:46;;;;;;;12.13;2.60;;;3.90;99.90;;;;;;5029883;28;20479;-63
2022/01/20 05:10:13;;;;;;;16.83;2.67;;;3.90;99.90;;;;;;5030063;28;20038;-63
2022/01/20 05:15:20;;;;;;;16.95;2.20;;;3.70;99.90;;;;;;5010200;28;20120;-63
2022/01/20 05:17:46;;;;;;;17.92;2.38;;;3.60;99.90;;;;;;5010047;28;20030;-63
2022/01/20 05:20:12;;;;;;;12.02;2.20;;;3.60;99.90;;;;;;5010060;28;20695;-63
2022/01/20 05:22:37;;;;;;;19.63;3.03;;;3.70;99.90;;;;;;5009863;28;20152;-63
2022/01/20 05:25:04;;;;;;;16.20;2.25;;;3.70;99.90;;;;;;5010058;28;20077;-63
2022/01/20 05:27:30;;;;;;;12.50;3.00;;;3.70;99.90;;;;;;5010020;28;20042;-63
2022/01/20 05:29:55;;;;;;;14.93;2.03;;;3.80;99.90;;;;;;4992438;28;20056;-63
2022/01/20 05:32:22;;;;;;;18.63;2.50;;;3.80;99.90;;;;;;5010130;28;20034;-63
2022/01/20 05:34:47;;;;;;;13.48;3.10;;;3.80;99.90;;;;;;5009812;28;20042;-63
2022/01/20 05:37:13;;;;;;;13.40;2.50;;;3.80;99.90;;;;;;5010166;28;20041;-63
2022/01/20 05:39:40;;;;;;;11.13;2.13;;;3.80;99.90;;;;;;5010084;28;20108;-63
2022/01/20 05:42:06;;;;;;;12.90;2.40;;;3.80;99.90;;;;;;5010154;28;20069;-63
2022/01/20 05:44:31;;;;;;;9.50;1.90;;;3.80;99.90;;;;;;5009897;28;20040;-63
2022/01/20 05:46:57;;;;;;;14.13;2.50;;;3.70;99.90;;;;;;5009828;28;20034;-63
2022/01/20 05:49:22;;;;;;;9.35;1.92;;;3.60;99.90;;;;;;5009800;28;20510;-63
2022/01/20 05:51:52;;;;;;;10.80;2.67;;;3.70;99.90;;;;;;5009828;28;20096;-63
2022/01/20 05:54:19;;;;;;;12.80;2.22;;;3.60;99.90;;;;;;4991964;28;20715;-62
2022/01/20 05:56:45;;;;;;;14.50;2.42;;;3.70;99.90;;;;;;5009818;28;20080;-63
2022/01/20 05:59:11;;;;;;;10.32;2.13;;;3.70;99.90;;;;;;5009713;28;20083;-63
2022/01/20 06:01:38;;;;;;;8.98;2.05;;;3.60;99.90;;;;;;5009663;28;20505;-63
2022/01/20 06:04:05;;;;;;;16.75;2.35;;;3.60;99.90;;;;;;5009379;28;20048;-64
2022/01/20 06:06:31;;;;;;;10.82;2.38;;;3.50;99.90;;;;;;5009448;28;20109;-63
2022/01/20 06:08:57;;;;;;;10.35;2.22;;;3.40;99.90;;;;;;5009667;28;20466;-63
2022/01/20 06:11:23;;;;;;;12.25;1.92;;;3.20;99.90;;;;;;5009609;28;20037;-63
2022/01/20 06:13:49;;;;;;;9.07;1.92;;;3.20;99.90;;;;;;5009471;28;20100;-63
2022/01/20 06:16:15;;;;;;;17.88;1.95;;;3.10;99.90;;;;;;5010011;28;20041;-63
2022/01/20 06:18:40;;;;;;;9.10;2.08;;;3.10;99.90;;;;;;5012965;28;20038;-63
2022/01/20 06:21:06;;;;;;;8.38;1.77;;;3.10;99.90;;;;;;5012854;28;20092;-64
2022/01/20 06:23:33;;;;;;;8.88;1.50;;;3.10;99.90;;;;;;4995223;28;20041;-63
2022/01/20 06:26:04;;;;;;;14.10;2.35;;;3.00;99.90;;;;;;5013023;28;20041;-63
2022/01/20 06:28:35;;;;;;;9.73;1.92;;;3.00;99.90;;;;;;5012968;28;20056;-63
2022/01/20 06:31:00;;;;;;;9.10;2.30;;;2.90;99.90;;;;;;5012735;28;20046;-63
2022/01/20 06:33:27;;;;;;;8.63;2.92;;;2.80;99.90;;;;;;5012425;28;20088;-63
2022/01/20 06:35:53;;;;;;;8.38;1.63;;;2.80;99.90;;;;;;5012950;28;20128;-63
2022/01/20 06:38:18;;;;;;;11.80;1.95;;;2.70;99.90;;;;;;4995124;28;20121;-63
2022/01/20 06:40:44;;;;;;;10.82;1.95;;;2.70;99.90;;;;;;5012723;28;20044;-64
2022/01/20 06:43:10;;;;;;;7.28;1.95;;;2.80;99.90;;;;;;5012522;28;20034;-64
2022/01/20 06:45:36;;;;;;;13.57;2.20;;;2.80;99.90;;;;;;5012583;28;20040;-64
2022/01/20 06:48:01;;;;;;;8.55;1.80;;;2.80;99.90;;;;;;5012376;28;20053;-64
2022/01/20 06:50:27;;;;;;;11.43;2.45;;;2.90;99.90;;;;;;5012356;28;20049;-63
2022/01/20 06:52:54;;;;;;;11.80;2.20;;;2.90;99.90;;;;;;5012178;28;20112;-63
2022/01/20 06:55:20;;;;;;;12.13;2.10;;;2.80;99.90;;;;;;5012645;28;20042;-63
2022/01/20 06:57:45;;;;;;;10.20;2.10;;;2.70;99.90;;;;;;5012488;28;20048;-63
2022/01/20 07:00:17;;;;;;;16.17;2.58;;;2.60;99.90;;;;;;5012283;28;20049;-63
2022/01/20 07:02:44;;;;;;;16.30;2.42;;;2.50;99.90;;;;;;5011644;28;20042;-63
2022/01/20 07:05:12;;;;;;;9.13;2.42;;;2.40;99.90;;;;;;5012779;28;20038;-63
2022/01/20 07:07:38;;;;;;;15.07;2.75;;;2.40;99.90;;;;;;5011537;28;20129;-63
2022/01/20 07:10:05;;;;;;;13.68;2.95;;;2.40;99.90;;;;;;4978010;28;20381;-63
2022/01/20 07:12:30;;;;;;;10.48;2.13;;;2.30;99.90;;;;;;5011316;28;20046;-63
2022/01/20 07:14:56;;;;;;;19.98;2.50;;;2.30;99.90;;;;;;5010889;28;20046;-64
2022/01/20 07:17:21;;;;;;;11.82;2.55;;;2.30;99.90;;;;;;5010489;28;20038;-63
2022/01/20 07:19:47;;;;;;;10.38;2.00;;;2.20;99.90;;;;;;5010574;28;20045;-63
2022/01/20 07:22:12;;;;;;;18.15;2.00;;;2.20;99.90;;;;;;4993030;28;20414;-63
2022/01/20 07:24:38;;;;;;;9.88;2.55;;;2.20;99.90;;;;;;5010587;28;20038;-63
2022/01/20 07:27:04;;;;;;;12.05;2.95;;;2.20;99.90;;;;;;5008955;28;20046;-63
2022/01/20 07:29:31;;;;;;;11.85;2.30;;;2.30;99.90;;;;;;5011627;28;20187;-63
2022/01/20 07:32:03;;;;;;;10.45;2.55;;;2.40;99.90;;;;;;5011601;28;20080;-63
2022/01/20 07:34:29;;;;;;;13.18;2.30;;;2.60;99.90;;;;;;5011658;28;20042;-63
2022/01/20 07:36:55;;;;;;;20.83;2.83;;;2.60;99.90;;;;;;5011923;28;20049;-63
2022/01/20 07:39:20;;;;;;;18.67;2.35;;;2.70;99.90;;;;;;5011530;28;20065;-63
2022/01/20 07:41:46;;;;;;;16.98;2.78;;;2.70;99.90;;;;;;5011568;28;20054;-63
2022/01/20 07:44:12;;;;;;;17.45;2.78;;;2.70;99.90;;;;;;5011101;28;20034;-63
2022/01/20 07:46:37;;;;;;;11.93;2.13;;;2.70;99.90;;;;;;4994198;28;20044;-63
2022/01/20 07:49:04;;;;;;;18.98;3.08;;;2.60;99.90;;;;;;5011603;28;20042;-63
2022/01/20 07:51:30;;;;;;;15.80;2.97;;;2.60;99.90;;;;;;5011067;28;20117;-63
2022/01/20 07:53:55;;;;;;;15.73;2.60;;;2.60;99.90;;;;;;5010633;28;20125;-64
2022/01/20 07:56:21;;;;;;;10.32;2.50;;;2.60;99.90;;;;;;5011083;28;20040;-63
2022/01/20 07:58:47;;;;;;;16.25;2.80;;;2.60;99.90;;;;;;5010586;28;20042;-63
2022/01/20 08:01:12;;;;;;;16.75;2.47;;;2.60;99.90;;;;;;5010359;28;20506;-63
2022/01/20 08:03:38;;;;;;;12.85;2.45;;;2.70;99.90;;;;;;5009238;28;20033;-64
2022/01/20 08:06:04;;;;;;;15.73;2.40;;;2.70;99.90;;;;;;5010609;28;20100;-64
2022/01/20 08:08:29;;;;;;;18.60;2.15;;;2.60;99.90;;;;;;5011012;28;20401;-63
2022/01/20 08:10:55;;;;;;;10.10;2.20;;;2.60;99.90;;;;;;5010781;28;20037;-63
2022/01/20 08:13:20;;;;;;;13.10;2.22;;;2.60;99.90;;;;;;5010637;28;20598;-63
2022/01/20 08:15:46;;;;;;;23.45;3.13;;;2.60;99.90;;;;;;5010369;28;20038;-63
2022/01/20 08:18:12;;;;;;;13.65;2.13;;;2.50;99.90;;;;;;5010868;28;20496;-62
2022/01/20 08:20:38;;;;;;;18.98;2.55;;;2.50;99.90;;;;;;4993151;28;20056;-63
2022/01/20 08:23:04;;;;;;;15.98;3.42;;;2.40;99.90;;;;;;5010375;28;20126;-63
2022/01/20 08:25:30;;;;;;;11.32;2.50;;;2.40;99.90;;;;;;5010534;28;20042;-63
2022/01/20 08:27:56;;;;;;;10.52;2.90;;;2.40;99.90;;;;;;5010284;28;20112;-63
2022/01/20 08:30:23;;;;;;;19.73;3.47;;;2.30;99.90;;;;;;5010238;28;20041;-63
2022/01/20 08:32:49;;;;;;;17.15;2.85;;;2.40;99.90;;;;;;5009714;28;20404;-63
2022/01/20 08:35:16;;;;;;;15.30;2.60;;;2.40;99.90;;;;;;5010479;28;20488;-63
2022/01/20 08:37:45;;;;;;;13.25;2.83;;;2.50;99.90;;;;;;4992612;28;20044;-63
2022/01/20 08:40:16;;;;;;;13.07;3.00;;;2.60;99.90;;;;;;5009891;28;20053;-63
2022/01/20 08:42:44;;;;;;;10.48;2.55;;;2.60;99.90;;;;;;5010141;28;20038;-62
2022/01/20 08:45:11;;;;;;;12.60;2.30;;;2.70;99.90;;;;;;5010631;28;20657;-63
2022/01/20 08:47:37;;;;;;;13.32;2.63;;;2.80;99.90;;;;;;5010533;28;20045;-63
2022/01/20 08:50:05;;;;;;;14.52;2.85;;;2.90;99.90;;;;;;5010659;28;20041;-63
2022/01/20 08:52:31;;;;;;;16.55;2.30;;;3.00;99.90;;;;;;5009596;28;20056;-63
2022/01/20 08:54:58;;;;;;;14.95;3.63;;;3.00;99.90;;;;;;5010188;28;20041;-63
2022/01/20 08:57:28;;;;;;;15.40;3.17;;;3.10;99.90;;;;;;5010039;28;20534;-63
2022/01/20 08:59:56;;;;;;;16.70;2.42;;;3.20;99.90;;;;;;5010460;28;20057;-62
2022/01/20 09:02:22;;;;;;;16.67;2.90;;;3.20;99.90;;;;;;5010365;28;20046;-63
2022/01/20 09:04:48;;;;;;;20.48;3.10;;;3.30;99.90;;;;;;5009707;28;20038;-63
2022/01/20 09:07:14;;;;;;;11.95;2.75;;;3.30;99.90;;;;;;5009093;28;20037;-63
2022/01/20 09:09:46;;;;;;;10.85;2.22;;;3.30;99.90;;;;;;5008507;28;20454;-63
2022/01/20 09:17:26;;;;;;;15.20;2.95;;;3.10;99.90;;;;;;5010032;28;20054;-62
2022/01/20 09:19:52;;;;;;;16.20;3.10;;;3.10;99.90;;;;;;5010119;28;20081;-62
2022/01/20 09:22:19;;;;;;;16.17;2.50;;;3.00;99.90;;;;;;5010020;28;20033;-63
2022/01/20 09:24:45;;;;;;;10.75;2.58;;;3.00;99.90;;;;;;5009987;28;20628;-62
2022/01/20 09:27:12;;;;;;;8.93;2.08;;;3.00;99.90;;;;;;5010092;28;20049;-63
2022/01/20 09:29:38;;;;;;;6.55;1.98;;;2.90;99.90;;;;;;5009925;28;20412;-63
2022/01/20 09:32:07;;;;;;;5.82;2.03;;;2.90;99.90;;;;;;5010062;28;20484;-63
2022/01/20 09:34:32;;;;;;;6.22;1.80;;;2.80;99.90;;;;;;5009642;28;20049;-63
2022/01/20 09:36:58;;;;;;;4.72;1.90;;;2.80;99.90;;;;;;5009598;28;20069;-62
2022/01/20 09:39:24;;;;;;;8.45;2.10;;;2.90;99.90;;;;;;5010063;28;20045;-63
2022/01/20 09:41:49;;;;;;;8.15;1.67;;;2.80;99.90;;;;;;5010120;28;20517;-63
2022/01/20 09:44:16;;;;;;;5.25;1.83;;;2.80;99.90;;;;;;5009694;28;20109;-63
2022/01/20 09:46:44;;;;;;;8.85;1.40;;;2.70;99.90;;;;;;5009716;28;20380;-63
2022/01/20 09:49:11;;;;;;;12.20;2.00;;;2.70;99.90;;;;;;5009590;28;20042;-63
2022/01/20 09:51:37;;;;;;;9.70;1.65;;;2.70;99.90;;;;;;5012492;28;20726;-63
2022/01/20 09:54:04;;;;;;;5.82;1.50;;;2.60;99.90;;;;;;5013667;28;20052;-63
2022/01/20 09:56:30;;;;;;;9.57;2.20;;;2.70;99.90;;;;;;5013568;28;20052;-63
2022/01/20 09:58:56;;;;;;;11.43;1.73;;;2.90;99.90;;;;;;5013460;28;20042;-63
2022/01/20 10:01:42;;;;;;;9.27;1.75;;;3.10;99.90;;;;;;5013555;28;20034;-63
2022/01/20 10:04:25;;;;;;;9.57;1.75;;;3.10;99.90;;;;;;5012937;28;20044;-63
2022/01/20 10:07:00;;;;;;;14.05;1.42;;;3.20;99.90;;;;;;5013403;28;20062;-63
2022/01/20 10:09:36;;;;;;;7.10;1.75;;;3.10;99.90;;;;;;5013347;28;20042;-63
2022/01/20 10:12:03;;;;;;;7.15;2.10;;;2.80;99.90;;;;;;5013348;28;20077;-63
2022/01/20 10:14:38;;;;;;;12.68;2.13;;;2.60;99.90;;;;;;5012933;28;20045;-64
2022/01/20 10:17:15;;;;;;;10.70;2.08;;;2.50;99.90;;;;;;5013121;28;20045;-63
2022/01/20 10:19:41;;;;;;;10.25;1.83;;;2.50;99.90;;;;;;5013103;28;20053;-64
2022/01/20 10:22:25;;;;;;;12.73;3.05;;;2.40;99.90;;;;;;5013137;28;20033;-64
2022/01/20 10:25:20;;;;;;;15.07;3.45;;;2.40;99.90;;;;;;5013000;28;20464;-63
2022/01/20 10:27:47;;;;;;;8.25;2.00;;;2.30;99.90;;;;;;4999976;28;20046;-64
2022/01/20 10:30:14;;;;;;;11.10;1.92;;;2.40;99.90;;;;;;4995336;28;20046;-64
2022/01/20 10:32:45;;;;;;;9.77;1.88;;;2.50;99.90;;;;;;5012010;28;20037;-64
2022/01/20 10:35:13;;;;;;;12.73;1.95;;;2.70;99.90;;;;;;5010811;28;20048;-64
2022/01/20 10:37:41;;;;;;;12.40;1.77;;;2.90;99.90;;;;;;4995052;28;20073;-65
2022/01/20 10:40:11;;;;;;;11.15;1.80;;;3.00;99.90;;;;;;5011625;28;20550;-65
2022/01/20 10:42:43;;;;;;;6.60;1.95;;;3.10;99.90;;;;;;5027976;28;20122;-65
2022/01/20 10:45:27;;;;;;;7.07;1.83;;;3.20;99.90;;;;;;5012228;28;20553;-65
2022/01/20 10:47:55;;;;;;;9.15;2.22;;;3.30;99.90;;;;;;4995150;28;20045;-64
2022/01/20 10:50:27;;;;;;;9.05;1.60;;;3.10;99.90;;;;;;5012830;28;20064;-65
2022/01/20 10:52:54;;;;;;;4.78;1.70;;;3.00;99.90;;;;;;5012510;28;20045;-65
2022/01/20 10:55:32;;;;;;;14.27;2.58;;;2.90;99.90;;;;;;4995133;28;20706;-65
2022/01/20 10:58:15;;;;;;;6.05;1.35;;;2.80;99.90;;;;;;5011410;28;20048;-63
2022/01/20 11:00:51;;;;;;;5.72;1.35;;;2.80;99.90;;;;;;5012656;28;20104;-61
2022/01/20 11:03:17;;;;;;;4.68;1.35;;;2.80;99.90;;;;;;5051818;22;20049;-62
2022/01/20 11:05:48;;;;;;;5.28;1.27;;;2.90;99.90;;;;;;5011570;28;20041;-62
2022/01/20 11:08:14;;;;;;;5.25;1.40;;;3.00;99.90;;;;;;5012391;28;20050;-62
2022/01/20 11:10:42;;;;;;;5.18;1.50;;;3.10;99.90;;;;;;4994918;28;20153;-62
2022/01/20 11:13:09;;;;;;;4.50;1.27;;;3.20;99.90;;;;;;5012084;28;20038;-62
2022/01/20 11:15:35;;;;;;;10.85;1.45;;;3.30;99.90;;;;;;5012327;28;20042;-62
2022/01/20 11:18:01;;;;;;;5.75;1.20;;;3.30;99.90;;;;;;4994708;28;20050;-63
2022/01/20 11:20:29;;;;;;;4.35;1.30;;;3.30;99.90;;;;;;5012171;28;20042;-62
2022/01/20 11:22:58;;;;;;;9.13;1.50;;;3.30;99.90;;;;;;5011637;28;20496;-63
2022/01/20 11:25:26;;;;;;;9.68;1.75;;;3.30;99.90;;;;;;5011928;28;20395;-62
2022/01/20 11:28:08;;;;;;;10.30;2.08;;;3.30;99.90;;;;;;5012229;28;20048;-62
2022/01/20 11:30:38;;;;;;;9.48;1.80;;;3.50;99.90;;;;;;5012079;28;20037;-62
2022/01/20 11:33:10;;;;;;;3.67;1.35;;;3.60;99.90;;;;;;5011563;28;20048;-62
2022/01/20 11:35:51;;;;;;;7.70;1.80;;;3.70;99.90;;;;;;5011752;28;20061;-63
2022/01/20 11:38:19;;;;;;;4.50;1.52;;;3.80;99.90;;;;;;5012082;28;20077;-63
2022/01/20 11:41:00;;;;;;;8.52;1.55;;;3.90;99.90;;;;;;4994259;28;20044;-62
2022/01/20 11:43:47;;;;;;;8.48;2.00;;;4.00;99.90;;;;;;4993772;28;20042;-63
2022/01/20 11:46:16;;;;;;;6.22;1.45;;;4.10;99.90;;;;;;5011856;28;20100;-62
2022/01/20 11:48:49;;;;;;;9.43;1.80;;;4.20;99.90;;;;;;5011556;28;20042;-62
2022/01/20 11:51:17;;;;;;;7.07;1.60;;;4.20;99.90;;;;;;5011776;28;20045;-63
2022/01/20 11:53:57;;;;;;;10.68;2.22;;;4.20;99.90;;;;;;5011255;28;20046;-63
2022/01/20 11:56:33;;;;;;;10.25;1.90;;;4.20;99.90;;;;;;4993822;28;20050;-63
2022/01/20 11:58:59;;;;;;;10.45;2.25;;;4.20;99.90;;;;;;5011507;28;20046;-64
2022/01/20 12:01:27;;;;;;;13.73;2.13;;;4.20;99.90;;;;;;5011599;28;20515;-64
2022/01/20 12:03:53;;;;;;;9.32;1.77;;;4.20;99.90;;;;;;4993534;28;20038;-64
2022/01/20 12:06:24;;;;;;;9.63;1.92;;;4.30;99.90;;;;;;5011206;28;20053;-64
2022/01/20 12:09:03;;;;;;;11.02;1.98;;;4.30;99.90;;;;;;5011224;28;20091;-64
2022/01/20 12:11:46;;;;;;;7.60;1.48;;;4.40;99.90;;;;;;5011583;28;20116;-64
2022/01/20 12:14:27;;;;;;;12.00;2.03;;;4.60;99.90;;;;;;4992221;28;20046;-64
2022/01/20 12:17:00;;;;;;;;;;;4.80;99.90;;;;;;5011479;28;20452;-63
2022/01/20 12:19:25;;;;;;;8.30;1.45;;;5.00;99.90;;;;;;5011018;28;19929;-64
2022/01/20 12:21:51;;;;;;;10.45;2.00;;;5.10;99.90;;;;;;4993489;28;20041;-64
2022/01/20 12:24:16;;;;;;;15.27;1.90;;;4.90;99.90;;;;;;5010855;28;20044;-64
2022/01/20 12:26:42;;;;;;;15.55;2.00;;;4.80;99.90;;;;;;5011002;28;20069;-64
2022/01/20 12:29:10;;;;;;;11.73;2.00;;;4.70;99.90;;;;;;5010778;28;20084;-64
2022/01/20 12:31:53;;;;;;;9.20;1.70;;;4.60;99.90;;;;;;5011004;28;20048;-64
2022/01/20 12:34:20;;;;;;;9.65;2.53;;;4.40;99.90;;;;;;4993242;28;20536;-63
2022/01/20 12:36:51;;;;;;;8.15;2.40;;;4.20;99.90;;;;;;5010847;28;20053;-64
2022/01/20 12:39:26;;;;;;;5.47;2.10;;;4.30;99.90;;;;;;5010659;28;20506;-63
2022/01/20 12:42:01;;;;;;;13.43;1.90;;;4.30;99.90;;;;;;5010884;28;20121;-64
2022/01/20 12:44:46;;;;;;;14.10;2.40;;;4.30;99.90;;;;;;5010370;28;20084;-63
2022/01/20 12:47:12;;;;;;;7.93;1.80;;;4.40;99.90;;;;;;5010717;28;20037;-64
2022/01/20 12:49:38;;;;;;;9.85;1.95;;;4.50;99.90;;;;;;4992914;28;20037;-64
2022/01/20 12:52:06;;;;;;;10.00;2.50;;;4.40;99.90;;;;;;5010579;28;20096;-64
2022/01/20 12:54:34;;;;;;;9.30;1.98;;;4.50;99.90;;;;;;5010274;28;20037;-63
2022/01/20 12:57:09;;;;;;;13.98;2.72;;;4.50;99.90;;;;;;5010326;28;20048;-64
2022/01/20 12:59:40;;;;;;;10.00;2.25;;;4.60;99.90;;;;;;5010544;28;20499;-64
2022/01/20 13:02:24;;;;;;;12.52;2.38;;;4.70;99.90;;;;;;5010312;28;20558;-64
2022/01/20 13:05:18;;;;;;;11.40;1.77;;;4.90;99.90;;;;;;5010336;28;20042;-63
2022/01/20 13:07:51;;;;;;;12.95;1.92;;;5.00;99.90;;;;;;5008447;28;20092;-64
2022/01/20 13:10:22;;;;;;;14.82;2.65;;;5.10;99.90;;;;;;5010298;28;20060;-63
2022/01/20 13:12:50;;;;;;;11.32;2.20;;;5.20;99.90;;;;;;4992491;28;20053;-64
2022/01/20 13:15:16;;;;;;;14.13;2.63;;;5.20;99.90;;;;;;4992685;28;20052;-64
2022/01/20 13:17:41;;;;;;;10.63;2.72;;;5.30;99.90;;;;;;5009975;28;20042;-64
2022/01/20 13:20:21;;;;;;;13.50;2.85;;;5.40;99.90;;;;;;5010289;28;20045;-64
2022/01/20 13:22:56;;;;;;;16.70;2.67;;;5.40;99.90;;;;;;5009738;28;20395;-64
2022/01/20 13:25:27;;;;;;;13.52;2.58;;;5.30;99.90;;;;;;5010915;28;20030;-65
2022/01/20 13:27:56;;;;;;;6.05;1.70;;;5.30;99.90;;;;;;5014117;28;20065;-65
2022/01/20 13:30:30;;;;;;;9.07;2.03;;;5.20;99.90;;;;;;5013995;28;20057;-63
2022/01/20 13:32:57;;;;;;;9.77;2.20;;;5.20;99.90;;;;;;5013831;28;20034;-63
2022/01/20 13:35:24;;;;;;;5.00;1.60;;;5.20;99.90;;;;;;5014166;28;20399;-64
2022/01/20 13:38:01;;;;;;;9.52;2.00;;;5.10;99.90;;;;;;5013977;28;20056;-64
2022/01/20 13:40:27;;;;;;;6.95;1.88;;;4.70;99.90;;;;;;5013910;28;20038;-64
2022/01/20 13:45:39;;;;;;;4.75;1.35;;;4.10;99.90;;;;;;5014210;28;20088;-64
2022/01/20 13:48:05;;;;;;;6.82;1.50;;;3.90;99.90;;;;;;4996207;28;20572;-63
2022/01/20 13:50:33;;;;;;;11.10;1.98;;;3.80;99.90;;;;;;5013825;28;20132;-64
2022/01/20 13:53:01;;;;;;;5.53;1.25;;;3.80;99.90;;;;;;5013420;28;20050;-63
2022/01/20 13:55:30;;;;;;;9.77;2.15;;;3.90;99.90;;;;;;5014050;28;20037;-63
2022/01/20 13:57:58;;;;;;;4.28;1.45;;;3.90;99.90;;;;;;5013764;28;20042;-64
2022/01/20 14:00:27;;;;;;;10.50;1.90;;;4.00;99.90;;;;;;5013530;28;20392;-65
2022/01/20 14:02:53;;;;;;;12.57;1.67;;;4.10;99.90;;;;;;5013193;28;20088;-64
2022/01/20 14:05:22;;;;;;;14.00;2.28;;;4.10;99.90;;;;;;5013664;28;20042;-64
2022/01/20 14:07:47;;;;;;;5.53;1.90;;;4.20;99.90;;;;;;5013618;28;20045;-63